createdAt,value
2022-12-20T00:00:26.876Z,99502.06
2022-12-20T00:02:55.650Z,99500.56
2022-12-20T00:05:24.400Z,99494.16
2022-12-20T00:07:53.157Z,99483.91
2022-12-20T00:10:23.655Z,99482.75
2022-12-20T00:12:52.469Z,99472.88
2022-12-20T00:15:21.165Z,99462.13
2022-12-20T00:17:50.020Z,99446.47
2022-12-20T00:20:18.885Z,99432.44
2022-12-20T00:22:47.644Z,99434.09
2022-12-20T00:25:16.669Z,99428.47
2022-12-20T00:27:49.540Z,99416.94
2022-12-20T00:30:19.288Z,99426.19
2022-12-20T00:32:48.795Z,99430.78
2022-12-20T00:35:17.709Z,99424.19
2022-12-20T00:37:46.584Z,99423.03
2022-12-20T00:40:16.361Z,99419.41
2022-12-20T00:42:45.090Z,99432.78
2022-12-20T00:45:15.376Z,99438.69
2022-12-20T00:47:44.147Z,99432.41
2022-12-20T00:50:13.689Z,99442.34
2022-12-20T00:52:42.482Z,99435.41
2022-12-20T00:55:11.871Z,99428.81
2022-12-20T00:57:40.608Z,99425.84
2022-12-20T01:00:11.652Z,99417.91
2022-12-20T01:02:42.017Z,99419.56
2022-12-20T01:08:03.085Z,99420.22
2022-12-20T01:10:30.995Z,99422.53
2022-12-20T01:12:59.921Z,99421.53
2022-12-20T01:15:28.180Z,99423.16
2022-12-20T01:17:57.193Z,99429.78
2022-12-20T01:20:24.920Z,99418.22
2022-12-20T01:22:53.758Z,99414.41
2022-12-20T01:25:24.079Z,99417.56
2022-12-20T01:27:54.422Z,99421.19
2022-12-20T01:30:23.288Z,99433.06
2022-12-20T01:32:52.021Z,99426.13
2022-12-20T01:35:20.881Z,99427.78
2022-12-20T01:37:49.821Z,99429.75
2022-12-20T01:40:18.808Z,99422.81
2022-12-20T01:42:50.187Z,99420.84
2022-12-20T01:45:30.415Z,99420.19
2022-12-20T01:48:01.073Z,99422.16
2022-12-20T01:50:29.967Z,99423.66
2022-12-20T01:53:00.249Z,99428.59
2022-12-20T01:55:30.543Z,99420.00
2022-12-20T01:58:06.189Z,99420.00
2022-12-20T02:00:35.128Z,99421.47
2022-12-20T02:03:09.639Z,99416.69
2022-12-20T02:05:41.304Z,99403.31
2022-12-20T02:08:13.263Z,99399.84
2022-12-20T02:11:03.558Z,99402.66
2022-12-20T02:13:52.044Z,99402.84
2022-12-20T02:16:31.060Z,99405.97
2022-12-20T02:19:14.174Z,99409.63
2022-12-20T02:21:53.386Z,99402.66
2022-12-20T02:25:03.699Z,99405.63
2022-12-20T02:27:57.205Z,99404.94
2022-12-20T02:30:34.296Z,99417.16
2022-12-20T02:33:06.530Z,99416.19
2022-12-20T02:35:42.783Z,99408.59
2022-12-20T02:38:31.225Z,99407.25
2022-12-20T02:41:07.652Z,99413.03
2022-12-20T02:43:59.621Z,99411.53
2022-12-20T02:46:31.065Z,99405.41
2022-12-20T02:49:06.182Z,99395.34
2022-12-20T02:51:36.298Z,99401.78
2022-12-20T02:54:06.369Z,99398.97
2022-12-20T02:56:44.127Z,99403.09
2022-12-20T02:59:17.787Z,99399.94
2022-12-20T03:02:20.418Z,99399.81
2022-12-20T03:04:49.572Z,99397.97
2022-12-20T03:07:18.551Z,99394.50
2022-12-20T03:09:47.836Z,99390.41
2022-12-20T03:12:17.830Z,99386.13
2022-12-20T03:14:46.727Z,99386.78
2022-12-20T03:17:16.713Z,99393.19
2022-12-20T03:19:47.054Z,99395.66
2022-12-20T03:22:15.884Z,99394.03
2022-12-20T03:24:44.633Z,99388.72
2022-12-20T03:27:14.884Z,99383.44
2022-12-20T03:29:44.720Z,99387.09
2022-12-20T03:32:14.305Z,99378.66
2022-12-20T03:34:47.655Z,99387.09
2022-12-20T03:37:19.734Z,99392.88
2022-12-20T03:39:49.573Z,99379.94
2022-12-20T03:42:19.666Z,99392.00
2022-12-20T03:44:48.554Z,99375.03
2022-12-20T03:47:18.065Z,99381.13
2022-12-20T03:49:49.910Z,99386.41
2022-12-20T03:52:18.664Z,99379.81
2022-12-20T03:54:49.647Z,99374.53
2022-12-20T03:57:21.655Z,99375.84
2022-12-20T03:59:54.346Z,99376.66
2022-12-20T04:02:24.042Z,99380.47
2022-12-20T04:04:55.485Z,99379.47
2022-12-20T04:07:24.775Z,99379.47
2022-12-20T04:09:53.774Z,99375.53
2022-12-20T04:12:22.689Z,99380.13
2022-12-20T04:14:51.544Z,99384.75
2022-12-20T04:17:20.335Z,99381.13
2022-12-20T04:19:50.361Z,99374.16
2022-12-20T04:22:21.875Z,99375.84
2022-12-20T04:24:57.514Z,99363.44
2022-12-20T04:27:33.780Z,99370.88
2022-12-20T04:30:05.832Z,99365.41
2022-12-20T04:32:35.218Z,99364.22
2022-12-20T04:35:04.807Z,99360.59
2022-12-20T04:37:40.455Z,99357.59
2022-12-20T04:40:11.390Z,99367.53
2022-12-20T04:42:49.882Z,99363.25
2022-12-20T04:45:19.623Z,99370.19
2022-12-20T04:47:49.885Z,99371.19
2022-12-20T04:50:24.327Z,99361.56
2022-12-20T04:53:11.881Z,99365.22
2022-12-20T04:55:41.798Z,99361.56
2022-12-20T04:58:10.801Z,99368.53
2022-12-20T05:00:42.156Z,99354.97
2022-12-20T05:03:34.178Z,99359.91
2022-12-20T05:06:03.642Z,99356.59
2022-12-20T05:08:34.695Z,99357.28
2022-12-20T05:11:04.837Z,99350.16
2022-12-20T05:13:35.451Z,99354.28
2022-12-20T05:16:05.020Z,99356.72
2022-12-20T05:18:36.396Z,99350.63
2022-12-20T05:21:26.047Z,99352.28
2022-12-20T05:24:29.165Z,99342.53
2022-12-20T05:27:05.419Z,99348.66
2022-12-20T05:29:34.644Z,99348.97
2022-12-20T05:32:03.923Z,99348.16
2022-12-20T05:39:34.422Z,99324.56
2022-12-20T05:42:07.384Z,99318.78
2022-12-20T05:44:35.536Z,99325.19
2022-12-20T05:47:03.444Z,99318.56
2022-12-20T05:49:34.491Z,99312.09
2022-12-20T05:52:05.056Z,99316.56
2022-12-20T05:54:35.000Z,99320.22
2022-12-20T05:57:08.517Z,99326.31
2022-12-20T05:59:40.800Z,99313.28
2022-12-20T06:02:17.013Z,99313.09
2022-12-20T06:04:47.536Z,99312.91
2022-12-20T06:07:20.154Z,99317.38
2022-12-20T06:09:54.219Z,99309.34
2022-12-20T06:12:29.200Z,99310.16
2022-12-20T06:14:58.252Z,99308.31
2022-12-20T06:17:27.133Z,99313.47
2022-12-20T06:19:57.029Z,99316.94
2022-12-20T06:22:26.457Z,99314.75
2022-12-20T06:24:59.948Z,99321.53
2022-12-20T06:27:32.970Z,99320.50
2022-12-20T06:30:17.701Z,99321.53
2022-12-20T06:33:13.100Z,99311.91
2022-12-20T06:35:42.671Z,99303.34
2022-12-20T06:38:12.370Z,99309.63
2022-12-20T06:40:42.835Z,99318.22
2022-12-20T06:43:11.779Z,99320.69
2022-12-20T06:45:42.158Z,99322.34
2022-12-20T06:48:13.251Z,99320.34
2022-12-20T06:50:43.997Z,99326.44
2022-12-20T06:53:13.030Z,99327.31
2022-12-20T06:55:43.452Z,99322.84
2022-12-20T06:58:13.698Z,99327.78
2022-12-20T07:00:42.540Z,99328.97
2022-12-20T07:03:11.457Z,99323.84
2022-12-20T07:05:40.535Z,99317.56
2022-12-20T07:08:10.359Z,99331.31
2022-12-20T07:10:39.761Z,99330.78
2022-12-20T07:13:09.994Z,99328.16
2022-12-20T07:15:39.199Z,99322.22
2022-12-20T07:18:08.137Z,99318.22
2022-12-20T07:20:37.688Z,99318.09
2022-12-20T07:23:06.610Z,99324.56
2022-12-20T07:25:35.357Z,99322.84
2022-12-20T07:28:05.023Z,99317.19
2022-12-20T07:30:35.352Z,99322.16
2022-12-20T07:33:04.191Z,99326.00
2022-12-20T07:35:32.944Z,99315.09
2022-12-20T07:38:01.676Z,99317.38
2022-12-20T07:40:30.506Z,99310.75
2022-12-20T07:42:59.441Z,99307.94
2022-12-20T07:45:28.356Z,99295.34
2022-12-20T07:48:04.926Z,99302.13
2022-12-20T07:50:38.416Z,99297.31
2022-12-20T07:53:09.429Z,99287.56
2022-12-20T07:55:42.277Z,99299.41
2022-12-20T07:58:12.933Z,99313.00
2022-12-20T08:00:42.123Z,99321.06
2022-12-20T08:03:18.245Z,99305.91
2022-12-20T08:05:53.308Z,99310.47
2022-12-20T08:08:22.819Z,99319.16
2022-12-20T08:10:52.492Z,99303.78
2022-12-20T08:13:21.412Z,99299.78
2022-12-20T08:15:50.218Z,99300.13
2022-12-20T08:18:20.524Z,99300.44
2022-12-20T08:20:49.397Z,99310.47
2022-12-20T08:23:19.583Z,99318.06
2022-12-20T08:25:48.356Z,99314.25
2022-12-20T08:28:17.233Z,99305.59
2022-12-20T08:30:46.833Z,99312.97
2022-12-20T08:33:15.760Z,99312.16
2022-12-20T08:35:45.963Z,99318.13
2022-12-20T08:38:14.963Z,99320.09
2022-12-20T08:40:43.749Z,99319.09
2022-12-20T08:43:12.514Z,99307.88
2022-12-20T08:45:41.367Z,99314.63
2022-12-20T08:48:10.169Z,99312.44
2022-12-20T08:50:39.809Z,99303.31
2022-12-20T08:53:10.009Z,99301.16
2022-12-20T08:55:38.910Z,99316.84
2022-12-20T08:58:07.735Z,99314.31
2022-12-20T09:00:37.354Z,99312.59
2022-12-20T09:03:07.535Z,99315.97
2022-12-20T09:05:36.556Z,99306.50
2022-12-20T09:08:05.636Z,99324.66
2022-12-20T09:10:35.812Z,99321.03
2022-12-20T09:13:04.631Z,99328.25
2022-12-20T09:15:35.725Z,99322.22
2022-12-20T09:18:05.784Z,99324.59
2022-12-20T09:20:34.689Z,99320.13
2022-12-20T09:23:03.401Z,99320.94
2022-12-20T09:25:32.187Z,99324.50
2022-12-20T09:28:02.588Z,99322.75
2022-12-20T09:30:31.418Z,99325.50
2022-12-20T09:33:08.623Z,99325.44
2022-12-20T09:35:46.231Z,99323.50
2022-12-20T09:38:15.627Z,99324.88
2022-12-20T09:40:50.205Z,99330.25
2022-12-20T09:43:23.384Z,99326.22
2022-12-20T09:45:58.567Z,99324.41
2022-12-20T09:48:31.910Z,99330.63
2022-12-20T09:51:19.220Z,99332.28
2022-12-20T09:54:07.692Z,99330.34
2022-12-20T09:56:45.079Z,99336.19
2022-12-20T09:59:20.128Z,99331.38
2022-12-20T10:01:51.718Z,99338.03
2022-12-20T10:04:25.928Z,99341.59
2022-12-20T10:07:15.782Z,99341.78
2022-12-20T10:10:24.577Z,99351.00
2022-12-20T10:13:05.029Z,99351.00
2022-12-20T10:15:41.813Z,99338.28
2022-12-20T10:18:34.005Z,99328.25
2022-12-20T10:21:12.335Z,99326.06
2022-12-20T10:23:57.326Z,99317.56
2022-12-20T10:26:26.200Z,99331.00
2022-12-20T10:28:55.028Z,99325.50
2022-12-20T10:31:26.645Z,99328.06
2022-12-20T10:33:55.822Z,99314.00
2022-12-20T10:36:28.601Z,99315.91
2022-12-20T10:39:00.208Z,99320.31
2022-12-20T10:41:32.070Z,99313.06
2022-12-20T10:44:05.427Z,99306.94
2022-12-20T10:46:42.860Z,99291.88
2022-12-20T10:49:41.288Z,99288.88
2022-12-20T10:52:15.640Z,99291.59
2022-12-20T10:54:46.542Z,99296.44
2022-12-20T10:57:22.559Z,99283.84
2022-12-20T10:59:55.247Z,99276.25
2022-12-20T11:02:40.147Z,99266.31
2022-12-20T11:05:26.012Z,99264.47
2022-12-20T11:10:48.991Z,99250.03
2022-12-20T11:13:26.018Z,99240.09
2022-12-20T11:16:01.602Z,99228.56
2022-12-20T11:18:51.364Z,99218.91
2022-12-20T11:21:34.237Z,99218.53
2022-12-20T11:24:14.530Z,99213.03
2022-12-20T11:27:15.291Z,99216.94
2022-12-20T11:30:06.280Z,99220.88
2022-12-20T11:33:21.638Z,99215.66
2022-12-20T11:36:03.983Z,99208.53
2022-12-20T11:38:43.939Z,99211.00
2022-12-20T11:41:29.531Z,99206.88
2022-12-20T11:44:25.695Z,99204.88
2022-12-20T11:47:44.191Z,99211.91
2022-12-20T11:50:47.691Z,99207.16
2022-12-20T11:53:28.444Z,99209.81
2022-12-20T11:56:06.851Z,99204.13
2022-12-20T11:58:50.245Z,99197.16
2022-12-20T12:01:22.482Z,99193.91
2022-12-20T12:04:06.867Z,99196.06
2022-12-20T12:06:40.947Z,99198.59
2022-12-20T12:09:31.823Z,99181.72
2022-12-20T12:12:09.190Z,99176.50
2022-12-20T12:14:54.534Z,99172.06
2022-12-20T12:17:35.591Z,99171.06
2022-12-20T12:20:33.258Z,99168.41
2022-12-20T12:23:12.103Z,99162.28
2022-12-20T12:25:42.257Z,99160.44
2022-12-20T12:28:15.244Z,99142.22
2022-12-20T12:30:52.686Z,99135.09
2022-12-20T12:33:29.148Z,99131.63
2022-12-20T12:36:38.907Z,99133.63
2022-12-20T12:39:45.087Z,99123.88
2022-12-20T12:43:11.608Z,99126.31
2022-12-20T12:45:48.196Z,99117.84
2022-12-20T12:48:25.372Z,99111.94
2022-12-20T12:50:59.329Z,99118.31
2022-12-20T12:53:38.678Z,99115.25
2022-12-20T12:56:44.572Z,99112.06
2022-12-20T12:59:52.680Z,99112.50
2022-12-20T13:02:50.481Z,99117.81
2022-12-20T13:05:37.215Z,99119.00
2022-12-20T13:08:18.228Z,99108.84
2022-12-20T13:11:03.525Z,99106.75
2022-12-20T13:13:32.422Z,99103.66
2022-12-20T13:16:42.028Z,99096.97
2022-12-20T13:19:52.109Z,99088.44
2022-12-20T13:22:23.854Z,99082.13
2022-12-20T13:24:57.946Z,99076.25
2022-12-20T13:27:39.052Z,99078.72
2022-12-20T13:30:28.415Z,99070.56
2022-12-20T13:33:24.534Z,99065.66
2022-12-20T13:36:34.791Z,99066.47
2022-12-20T13:39:20.954Z,99058.31
2022-12-20T13:41:55.647Z,99055.88
2022-12-20T13:44:42.369Z,99050.75
2022-12-20T13:47:37.776Z,99045.84
2022-12-20T13:50:38.799Z,99046.84
2022-12-20T13:53:16.160Z,99043.38
2022-12-20T13:55:45.400Z,99039.66
2022-12-20T13:58:19.856Z,99045.22
2022-12-20T14:00:50.196Z,99038.84
2022-12-20T14:03:26.533Z,99037.00
2022-12-20T14:06:02.078Z,99031.72
2022-12-20T14:08:35.507Z,99039.66
2022-12-20T14:11:13.545Z,99039.03
2022-12-20T14:13:43.495Z,99037.22
2022-12-20T14:16:17.063Z,99028.81
2022-12-20T14:18:50.852Z,99031.47
2022-12-20T14:21:22.186Z,99028.19
2022-12-20T14:23:54.386Z,99020.41
2022-12-20T14:26:28.095Z,99021.38
2022-12-20T14:29:00.338Z,99027.88
2022-12-20T14:31:39.528Z,99028.25
2022-12-20T14:34:16.583Z,99021.13
2022-12-20T14:36:49.823Z,99009.91
2022-12-20T14:39:28.428Z,99012.34
2022-12-20T14:41:59.496Z,99005.38
2022-12-20T14:44:31.310Z,99008.63
2022-12-20T14:47:02.487Z,98997.03
2022-12-20T14:49:34.561Z,98992.13
2022-12-20T14:52:17.949Z,98983.31
2022-12-20T14:55:08.956Z,98979.03
2022-12-20T14:57:48.710Z,98988.97
2022-12-20T15:00:27.789Z,99004.00
2022-12-20T15:03:04.436Z,99001.34
2022-12-20T15:05:50.958Z,99001.97
2022-12-20T15:08:27.375Z,99001.59
2022-12-20T15:11:04.244Z,99005.25
2022-12-20T15:13:35.861Z,99004.25
2022-12-20T15:16:07.967Z,98995.28
2022-12-20T15:18:36.702Z,98986.31
2022-12-20T15:21:11.835Z,98989.63
2022-12-20T15:23:48.891Z,98987.94
2022-12-20T15:26:19.765Z,98989.38
2022-12-20T15:28:48.810Z,99006.28
2022-12-20T15:31:22.229Z,99000.22
2022-12-20T15:33:53.977Z,99002.47
2022-12-20T15:36:26.517Z,99003.44
2022-12-20T15:39:15.704Z,98999.56
2022-12-20T15:41:49.781Z,99001.84
2022-12-20T15:44:23.670Z,99005.69
2022-12-20T15:46:53.423Z,99010.81
2022-12-20T15:49:25.803Z,99014.16
2022-12-20T15:51:56.296Z,99010.66
2022-12-20T15:54:30.479Z,99011.41
2022-12-20T15:57:03.036Z,99004.38
2022-12-20T16:02:25.174Z,99014.97
2022-12-20T16:04:56.018Z,99008.47
2022-12-20T16:07:25.045Z,99013.41
2022-12-20T16:09:55.813Z,99019.47
2022-12-20T16:12:31.642Z,99015.59
2022-12-20T16:15:00.364Z,99014.31
2022-12-20T16:17:29.159Z,99009.28
2022-12-20T16:19:58.308Z,98998.69
2022-12-20T16:22:27.248Z,98988.50
2022-12-20T16:24:57.365Z,98993.78
2022-12-20T16:27:26.075Z,98998.63
2022-12-20T16:29:54.813Z,98995.72
2022-12-20T16:32:23.705Z,99001.84
2022-12-20T16:34:53.229Z,99008.22
2022-12-20T16:37:23.423Z,99011.31
2022-12-20T16:39:52.453Z,99012.31
2022-12-20T16:42:23.539Z,99004.38
2022-12-20T16:44:57.166Z,99010.66
2022-12-20T16:47:28.566Z,99005.00
2022-12-20T16:49:57.439Z,99007.97
2022-12-20T16:52:26.348Z,99008.41
2022-12-20T16:54:55.117Z,99004.94
2022-12-20T16:57:25.422Z,99002.72
2022-12-20T16:59:54.573Z,99003.13
2022-12-20T17:02:30.927Z,99003.47
2022-12-20T17:05:02.353Z,99006.97
2022-12-20T17:07:36.520Z,98999.19
2022-12-20T17:10:11.968Z,98989.25
2022-12-20T17:12:42.386Z,98993.91
2022-12-20T17:15:21.121Z,98992.53
2022-12-20T17:17:52.042Z,98989.41
2022-12-20T17:20:29.027Z,98989.63
2022-12-20T17:25:53.742Z,98992.97
2022-12-20T17:28:26.417Z,98982.44
2022-12-20T17:30:55.280Z,98986.28
2022-12-20T17:33:24.075Z,98977.19
2022-12-20T17:35:53.774Z,98973.53
2022-12-20T17:38:22.958Z,98971.31
2022-12-20T17:40:52.488Z,98975.19
2022-12-20T17:43:21.869Z,98959.41
2022-12-20T17:45:52.924Z,98963.94
2022-12-20T17:48:26.178Z,98963.75
2022-12-20T17:50:57.868Z,98977.91
2022-12-20T17:53:27.221Z,98969.56
2022-12-20T17:55:56.125Z,98960.59
2022-12-20T17:58:25.416Z,98959.97
2022-12-20T18:00:55.953Z,98953.47
2022-12-20T18:04:01.698Z,98956.88
2022-12-20T18:06:14.658Z,98951.41
2022-12-20T18:08:44.168Z,98950.50
2022-12-20T18:11:13.359Z,98945.22
2022-12-20T18:13:45.317Z,98934.88
2022-12-20T18:16:21.096Z,98934.47
2022-12-20T18:18:53.301Z,98938.53
2022-12-20T18:21:26.451Z,98948.50
2022-12-20T18:23:57.631Z,98945.22
2022-12-20T18:26:29.794Z,98938.28
2022-12-20T18:29:02.205Z,98921.56
2022-12-20T18:31:36.089Z,98932.56
2022-12-20T18:34:05.665Z,98925.19
2022-12-20T18:36:38.296Z,98917.50
2022-12-20T18:39:09.712Z,98910.38
2022-12-20T18:41:39.038Z,98907.09
2022-12-20T18:44:08.693Z,98909.75
2022-12-20T18:46:38.936Z,98911.81
2022-12-20T18:49:08.073Z,98923.22
2022-12-20T18:51:38.620Z,98919.56
2022-12-20T18:54:09.687Z,98926.06
2022-12-20T18:56:40.679Z,98927.69
2022-12-20T18:59:12.499Z,98942.41
2022-12-20T19:01:44.362Z,98937.28
2022-12-20T19:04:14.311Z,98927.31
2022-12-20T19:06:44.804Z,98918.50
2022-12-20T19:09:15.317Z,98914.66
2022-12-20T19:11:44.482Z,98929.53
2022-12-20T19:14:14.549Z,98929.53
2022-12-20T19:16:44.934Z,98920.72
2022-12-20T19:19:13.774Z,98927.97
2022-12-20T19:21:43.193Z,98919.38
2022-12-20T19:25:03.343Z,98935.16
2022-12-20T19:27:39.348Z,98926.47
2022-12-20T19:30:11.300Z,98921.16
2022-12-20T19:32:41.587Z,98917.09
2022-12-20T19:35:45.201Z,98916.22
2022-12-20T19:37:59.682Z,98899.84
2022-12-20T19:40:28.944Z,98898.47
2022-12-20T19:42:57.872Z,98902.75
2022-12-20T19:45:26.688Z,98919.91
2022-12-20T19:47:59.070Z,98905.06
2022-12-20T19:50:27.921Z,98903.03
2022-12-20T19:52:56.905Z,98895.25
2022-12-20T19:55:28.109Z,98890.09
2022-12-20T19:57:57.099Z,98895.19
2022-12-20T20:00:28.694Z,98897.91
2022-12-20T20:02:59.207Z,98899.47
2022-12-20T20:05:28.623Z,98893.81
2022-12-20T20:07:57.805Z,98897.91
2022-12-20T20:10:27.509Z,98885.47
2022-12-20T20:12:56.754Z,98896.06
2022-12-20T20:15:26.372Z,98893.72
2022-12-20T20:17:55.629Z,98891.41
2022-12-20T20:20:25.899Z,98897.91
2022-12-20T20:22:54.803Z,98896.28
2022-12-20T20:25:23.663Z,98904.38
2022-12-20T20:27:52.572Z,98901.19
2022-12-20T20:30:23.432Z,98903.13
2022-12-20T20:32:52.319Z,98906.03
2022-12-20T20:35:21.217Z,98893.31
2022-12-20T20:37:51.365Z,98884.25
2022-12-20T20:40:20.302Z,98889.94
2022-12-20T20:42:49.135Z,98886.25
2022-12-20T20:45:18.083Z,98884.94
2022-12-20T20:47:46.893Z,98881.47
2022-12-20T20:50:15.795Z,98880.13
2022-12-20T20:52:44.540Z,98879.41
2022-12-20T20:55:14.761Z,98868.97
2022-12-20T20:57:43.594Z,98875.09
2022-12-20T21:00:14.509Z,98883.72
2022-12-20T21:02:43.847Z,98879.50
2022-12-20T21:08:01.565Z,98866.53
2022-12-20T21:10:32.500Z,98868.81
2022-12-20T21:13:01.352Z,98862.72
2022-12-20T21:15:30.368Z,98864.34
2022-12-20T21:17:59.353Z,98850.44
2022-12-20T21:20:28.171Z,98859.56
2022-12-20T21:22:57.390Z,98865.31
2022-12-20T21:25:26.231Z,98868.38
2022-12-20T21:27:57.171Z,98862.91
2022-12-20T21:30:26.569Z,98860.88
2022-12-20T21:32:55.325Z,98861.25
2022-12-20T21:35:24.099Z,98861.84
2022-12-20T21:37:53.390Z,98856.97
2022-12-20T21:40:22.196Z,98851.06
2022-12-20T21:42:50.895Z,98845.31
2022-12-20T21:45:21.505Z,98844.50
2022-12-20T21:47:50.321Z,98848.78
2022-12-20T21:50:19.198Z,98863.47
2022-12-20T21:52:48.851Z,98858.78
2022-12-20T21:55:18.084Z,98857.56
2022-12-20T21:57:48.381Z,98862.47
2022-12-20T22:00:19.862Z,98857.59
2022-12-20T22:02:50.350Z,98860.38
2022-12-20T22:05:19.751Z,98862.84
2022-12-20T22:07:48.933Z,98854.31
2022-12-20T22:10:17.840Z,98851.41
2022-12-20T22:12:47.021Z,98840.47
2022-12-20T22:15:15.992Z,98840.81
2022-12-20T22:17:45.018Z,98844.13
2022-12-20T22:20:15.592Z,98839.53
2022-12-20T22:22:44.386Z,98838.94
2022-12-20T22:25:13.258Z,98842.38
2022-12-20T22:32:44.508Z,98835.53
2022-12-20T22:35:13.663Z,98839.19
2022-12-20T22:37:44.001Z,98831.69
2022-12-20T22:40:12.237Z,98831.91
2022-12-20T22:42:40.608Z,98827.75
2022-12-20T22:45:09.951Z,98831.22
2022-12-20T22:47:37.716Z,98826.16
2022-12-20T23:55:08.948Z,98772.22
2022-12-20T23:57:37.743Z,98780.00
